EZY332 EDDN-EDDS
Flight info
| Callsign | EZY332 |
|---|---|
| Flight time | 0h 23m |
| Altitude | 16000 |
| Route | BOLSI1G BOLSI Y166 DKB Z818 GEBNO/N0350F150 T726 LBU NEWBIE PLEASE SPEAK SLOWLY |
| Aircraft | A320/M-SDE3FGHIRWY/LB1 |
Departure
| Time | 2026-05-03 21:10 |
|---|---|
| Airport | Nuremberg Airport (EDDN) |
Arrival
| Time | 2026-05-03 21:33 |
|---|---|
| Airport | Stuttgart Airport (EDDS) |
| Time | Latitude | Longitude | Altitude | Speed | Heading |
|---|---|---|---|---|---|
| 2026-05-03 20:42 | 49.49506 | 11.07856 | 1027 ft | 0 kts | 188° |
| 2026-05-03 20:59 | 49.49512 | 11.07858 | 1028 ft | 2 kts | 188° |
| 2026-05-03 21:00 | 49.49532 | 11.07862 | 1026 ft | 3 kts | 185° |
| 2026-05-03 21:00 | 49.49545 | 11.07863 | 1029 ft | 3 kts | 179° |
| 2026-05-03 21:00 | 49.49570 | 11.07857 | 1029 ft | 3 kts | 144° |
| 2026-05-03 21:00 | 49.49579 | 11.07844 | 1030 ft | 1 kts | 99° |
| 2026-05-03 21:01 | 49.49579 | 11.07842 | 1030 ft | 0 kts | 98° |
| 2026-05-03 21:05 | 49.49573 | 11.07904 | 1030 ft | 11 kts | 98° |
| 2026-05-03 21:05 | 49.49560 | 11.08044 | 1030 ft | 13 kts | 99° |
| 2026-05-03 21:06 | 49.49545 | 11.08184 | 1028 ft | 13 kts | 97° |
| 2026-05-03 21:06 | 49.49535 | 11.08300 | 1032 ft | 9 kts | 93° |
| 2026-05-03 21:06 | 49.49589 | 11.08364 | 1032 ft | 14 kts | 18° |
| 2026-05-03 21:06 | 49.49610 | 11.08489 | 1032 ft | 12 kts | 98° |
| 2026-05-03 21:07 | 49.49594 | 11.08656 | 1034 ft | 21 kts | 98° |
| 2026-05-03 21:07 | 49.49572 | 11.08884 | 1037 ft | 21 kts | 98° |
| 2026-05-03 21:07 | 49.49550 | 11.09114 | 1038 ft | 22 kts | 98° |
| 2026-05-03 21:07 | 49.49532 | 11.09325 | 1041 ft | 17 kts | 83° |
| 2026-05-03 21:08 | 49.49588 | 11.09474 | 1042 ft | 16 kts | 54° |
| 2026-05-03 21:08 | 49.49656 | 11.09568 | 1045 ft | 12 kts | 8° |
| 2026-05-03 21:08 | 49.49704 | 11.09487 | 1044 ft | 0 kts | 279° |
| 2026-05-03 21:09 | 49.49720 | 11.09327 | 1042 ft | 51 kts | 278° |
| 2026-05-03 21:09 | 49.49811 | 11.08398 | 1030 ft | 121 kts | 278° |
| 2026-05-03 21:09 | 49.49959 | 11.06855 | 1150 ft | 162 kts | 278° |
| 2026-05-03 21:10 | 49.50110 | 11.05149 | 1913 ft | 160 kts | 280° |
| 2026-05-03 21:10 | 49.50271 | 11.03445 | 2611 ft | 167 kts | 281° |
| 2026-05-03 21:10 | 49.50460 | 11.01566 | 2981 ft | 189 kts | 281° |
| 2026-05-03 21:10 | 49.50676 | 10.99457 | 3365 ft | 210 kts | 281° |
| 2026-05-03 21:11 | 49.50916 | 10.97094 | 3807 ft | 236 kts | 281° |
| 2026-05-03 21:11 | 49.51169 | 10.94500 | 4494 ft | 252 kts | 278° |
| 2026-05-03 21:11 | 49.51003 | 10.91770 | 5341 ft | 265 kts | 251° |
| 2026-05-03 21:11 | 49.50243 | 10.89162 | 6305 ft | 269 kts | 244° |
| 2026-05-03 21:12 | 49.49434 | 10.86553 | 7296 ft | 270 kts | 243° |
| 2026-05-03 21:12 | 49.48619 | 10.83951 | 8368 ft | 269 kts | 243° |
| 2026-05-03 21:12 | 49.47811 | 10.81369 | 9457 ft | 268 kts | 241° |
| 2026-05-03 21:12 | 49.46769 | 10.79028 | 10464 ft | 266 kts | 225° |
| 2026-05-03 21:13 | 49.45302 | 10.77276 | 11290 ft | 272 kts | 209° |
| 2026-05-03 21:13 | 49.43449 | 10.76260 | 11647 ft | 297 kts | 191° |
| 2026-05-03 21:13 | 49.41301 | 10.76114 | 12017 ft | 318 kts | 182° |
| 2026-05-03 21:13 | 49.39058 | 10.76095 | 12726 ft | 325 kts | 182° |
| 2026-05-03 21:14 | 49.36779 | 10.76075 | 13519 ft | 330 kts | 182° |
| 2026-05-03 21:14 | 49.34466 | 10.76046 | 14242 ft | 334 kts | 182° |
| 2026-05-03 21:14 | 49.32122 | 10.76008 | 14909 ft | 340 kts | 182° |
| 2026-05-03 21:14 | 49.29742 | 10.75965 | 15578 ft | 344 kts | 183° |
| 2026-05-03 21:15 | 49.27359 | 10.75574 | 15930 ft | 346 kts | 196° |
| 2026-05-03 21:15 | 49.25151 | 10.74142 | 16026 ft | 346 kts | 213° |
| 2026-05-03 21:15 | 49.23326 | 10.71730 | 16032 ft | 349 kts | 230° |
| 2026-05-03 21:15 | 49.22052 | 10.68581 | 16047 ft | 351 kts | 246° |
| 2026-05-03 21:16 | 49.21345 | 10.64999 | 16048 ft | 352 kts | 254° |
| 2026-05-03 21:16 | 49.20736 | 10.61368 | 16048 ft | 352 kts | 254° |
| 2026-05-03 21:16 | 49.20120 | 10.57742 | 16047 ft | 352 kts | 254° |
| 2026-05-03 21:16 | 49.19501 | 10.54117 | 16050 ft | 352 kts | 254° |
| 2026-05-03 21:17 | 49.18881 | 10.50499 | 16047 ft | 352 kts | 253° |
| 2026-05-03 21:17 | 49.18470 | 10.48099 | 16045 ft | 352 kts | 254° |
| 2026-05-03 21:17 | 49.17645 | 10.43301 | 16043 ft | 352 kts | 253° |
| 2026-05-03 21:17 | 49.17020 | 10.39679 | 16046 ft | 352 kts | 253° |
| 2026-05-03 21:18 | 49.16394 | 10.36060 | 16046 ft | 353 kts | 253° |
| 2026-05-03 21:18 | 49.15770 | 10.32439 | 16044 ft | 353 kts | 253° |
| 2026-05-03 21:18 | 49.15144 | 10.28818 | 16044 ft | 353 kts | 253° |
| 2026-05-03 21:18 | 49.14596 | 10.25166 | 16043 ft | 354 kts | 260° |
| 2026-05-03 21:19 | 49.14488 | 10.21411 | 16046 ft | 356 kts | 271° |
| 2026-05-03 21:19 | 49.14764 | 10.17646 | 16063 ft | 357 kts | 274° |
| 2026-05-03 21:19 | 49.15066 | 10.13886 | 16064 ft | 357 kts | 274° |
| 2026-05-03 21:19 | 49.15365 | 10.10124 | 16061 ft | 357 kts | 274° |
| 2026-05-03 21:20 | 49.15659 | 10.06360 | 16063 ft | 357 kts | 274° |
| 2026-05-03 21:20 | 49.15951 | 10.02547 | 16065 ft | 356 kts | 274° |
| 2026-05-03 21:20 | 49.16236 | 9.98838 | 16065 ft | 356 kts | 274° |
| 2026-05-03 21:20 | 49.16409 | 9.95082 | 16066 ft | 354 kts | 266° |
| 2026-05-03 21:21 | 49.16120 | 9.91370 | 16067 ft | 351 kts | 255° |
| 2026-05-03 21:21 | 49.15376 | 9.87836 | 16067 ft | 349 kts | 248° |
| 2026-05-03 21:21 | 49.14524 | 9.84352 | 16066 ft | 350 kts | 248° |
| 2026-05-03 21:21 | 49.13681 | 9.80877 | 15563 ft | 350 kts | 248° |
| 2026-05-03 21:22 | 49.12845 | 9.77398 | 15071 ft | 348 kts | 248° |
| 2026-05-03 21:22 | 49.12007 | 9.73900 | 14655 ft | 343 kts | 248° |
| 2026-05-03 21:22 | 49.11193 | 9.70521 | 14213 ft | 339 kts | 247° |
| 2026-05-03 21:22 | 49.10389 | 9.67192 | 13678 ft | 338 kts | 247° |
| 2026-05-03 21:23 | 49.09578 | 9.63851 | 13198 ft | 333 kts | 247° |
| 2026-05-03 21:23 | 49.08778 | 9.60564 | 12737 ft | 329 kts | 247° |
| 2026-05-03 21:23 | 49.07985 | 9.57319 | 12285 ft | 324 kts | 247° |
| 2026-05-03 21:23 | 49.07204 | 9.54117 | 11825 ft | 320 kts | 246° |
| 2026-05-03 21:24 | 49.06431 | 9.50949 | 11374 ft | 317 kts | 246° |
| 2026-05-03 21:24 | 49.05542 | 9.47905 | 10892 ft | 312 kts | 236° |
| 2026-05-03 21:24 | 49.04218 | 9.45329 | 10424 ft | 307 kts | 223° |
| 2026-05-03 21:24 | 49.02553 | 9.43406 | 10247 ft | 294 kts | 209° |
| 2026-05-03 21:25 | 49.00794 | 9.41952 | 10128 ft | 282 kts | 208° |
| 2026-05-03 21:25 | 48.99107 | 9.40551 | 9993 ft | 271 kts | 208° |
| 2026-05-03 21:25 | 48.97467 | 9.39180 | 9584 ft | 270 kts | 208° |
| 2026-05-03 21:25 | 48.95824 | 9.37805 | 9216 ft | 268 kts | 208° |
| 2026-05-03 21:26 | 48.94194 | 9.36446 | 8781 ft | 267 kts | 208° |
| 2026-05-03 21:26 | 48.92487 | 9.35362 | 8366 ft | 267 kts | 194° |
| 2026-05-03 21:26 | 48.90633 | 9.35179 | 7932 ft | 269 kts | 175° |
| 2026-05-03 21:26 | 48.88837 | 9.35943 | 7368 ft | 270 kts | 157° |
| 2026-05-03 21:27 | 48.87156 | 9.37253 | 6612 ft | 272 kts | 155° |
| 2026-05-03 21:27 | 48.85474 | 9.38581 | 5825 ft | 273 kts | 155° |
| 2026-05-03 21:27 | 48.83795 | 9.39905 | 5190 ft | 269 kts | 155° |
| 2026-05-03 21:27 | 48.82182 | 9.41176 | 4948 ft | 251 kts | 155° |
| 2026-05-03 21:28 | 48.80690 | 9.42351 | 4801 ft | 233 kts | 156° |
| 2026-05-03 21:28 | 48.79303 | 9.43442 | 4675 ft | 217 kts | 156° |
| 2026-05-03 21:28 | 48.77995 | 9.44435 | 4579 ft | 204 kts | 163° |
| 2026-05-03 21:28 | 48.76653 | 9.44895 | 4455 ft | 196 kts | 181° |
| 2026-05-03 21:29 | 48.75315 | 9.44710 | 4028 ft | 196 kts | 199° |
| 2026-05-03 21:29 | 48.74106 | 9.43884 | 3804 ft | 187 kts | 217° |
| 2026-05-03 21:29 | 48.73188 | 9.42628 | 3621 ft | 172 kts | 232° |
| 2026-05-03 21:29 | 48.72582 | 9.41117 | 3430 ft | 166 kts | 248° |
| 2026-05-03 21:30 | 48.72240 | 9.39471 | 3221 ft | 162 kts | 254° |
| 2026-05-03 21:30 | 48.71933 | 9.37832 | 3008 ft | 160 kts | 254° |
| 2026-05-03 21:30 | 48.71636 | 9.36247 | 2809 ft | 153 kts | 254° |
| 2026-05-03 21:30 | 48.71354 | 9.34748 | 2624 ft | 144 kts | 254° |
| 2026-05-03 21:31 | 48.71083 | 9.33306 | 2439 ft | 142 kts | 254° |
| 2026-05-03 21:31 | 48.70812 | 9.31869 | 2246 ft | 141 kts | 254° |
| 2026-05-03 21:31 | 48.70548 | 9.30464 | 2065 ft | 138 kts | 254° |
| 2026-05-03 21:31 | 48.70286 | 9.29073 | 1868 ft | 137 kts | 254° |
| 2026-05-03 21:32 | 48.70024 | 9.27685 | 1689 ft | 137 kts | 254° |
| 2026-05-03 21:32 | 48.69757 | 9.26300 | 1539 ft | 137 kts | 253° |
| 2026-05-03 21:32 | 48.69498 | 9.24908 | 1393 ft | 137 kts | 253° |
| 2026-05-03 21:32 | 48.69242 | 9.23530 | 1288 ft | 129 kts | 255° |
| 2026-05-03 21:33 | 48.69041 | 9.22474 | 1287 ft | 79 kts | 254° |
| 2026-05-03 21:33 | 48.68939 | 9.21920 | 1285 ft | 30 kts | 263° |
| 2026-05-03 21:33 | 48.68949 | 9.21729 | 1288 ft | 17 kts | 279° |
| 2026-05-03 21:33 | 48.68973 | 9.21562 | 1287 ft | 14 kts | 286° |
| 2026-05-03 21:34 | 48.68976 | 9.21546 | 1290 ft | 0 kts | 286° |
| 2026-05-03 21:34 | 48.68985 | 9.21498 | 1285 ft | 8 kts | 284° |
| 2026-05-03 21:34 | 48.69000 | 9.21400 | 1286 ft | 13 kts | 283° |
| 2026-05-03 21:35 | 48.69030 | 9.21215 | 1285 ft | 20 kts | 283° |
| 2026-05-03 21:35 | 48.69021 | 9.21001 | 1286 ft | 22 kts | 253° |
| 2026-05-03 21:35 | 48.68977 | 9.20770 | 1285 ft | 24 kts | 254° |
| 2026-05-03 21:35 | 48.68929 | 9.20519 | 1287 ft | 26 kts | 254° |
| 2026-05-03 21:36 | 48.68877 | 9.20245 | 1287 ft | 28 kts | 254° |
| 2026-05-03 21:36 | 48.68836 | 9.20029 | 1286 ft | 15 kts | 254° |
| 2026-05-03 21:36 | 48.68853 | 9.19887 | 1285 ft | 15 kts | 339° |
| 2026-05-03 21:36 | 48.68876 | 9.19757 | 1285 ft | 15 kts | 253° |
| 2026-05-03 21:37 | 48.68893 | 9.19660 | 1286 ft | 5 kts | 1° |
| 2026-05-03 21:37 | 48.68906 | 9.19659 | 1288 ft | 0 kts | 357° |
| 2026-05-03 21:37 | 48.68911 | 9.19658 | 1285 ft | 3 kts | 355° |
| 2026-05-03 21:37 | 48.68929 | 9.19652 | 1287 ft | 2 kts | 345° |
| 2026-05-03 21:38 | 48.68930 | 9.19652 | 1287 ft | 0 kts | 345° |